Aeroporto :
LOGIN :

Iscrizione | Disclaimer

   EN    FR    IT 

 










Sommario :    VFR   VFR Marginale   IFR   IFR Intensivo   IFR Molto Intensivo
Visibilità : 
Base nubi : 
>= 8 km
>= 3000ft
5 / 8 km
1000 / 3000 ft
1500m / 5 km
500 / 1000 ft
800 / 1500m
200 / 500 ft
< 800m
< 200 ft
Simboli :   Temporali  Nebbia  Neve Forte  Precipitazioni Forti  Vento > 20 kt
SIGMETs :   Varie  Temporali  Ghiacco  Turbolenza  Onda orograficha  Ceneri Vulcaniche







- Altitudine del aeroporto : 978 ft
- Codice IATA : LNZ


LOWL - Linz

ULTIMO METAR :
  • 250620Z VRB02KT CAVOK 14/11 Q1015 NOSIG

METARs OBSOLETI :
  • 250550Z VRB02KT CAVOK 13/10 Q1015 NOSIG
  • 250520Z VRB02KT 9999 FEW070 12/10 Q1015 NOSIG
  • 250450Z VRB01KT 9999 FEW070 11/09 Q1015 NOSIG
  • 250420Z 25002KT 9999 FEW070 SCT300 10/08 Q1014 NOSIG
  • 250350Z 27002KT 9999 FEW070 SCT300 10/08 Q1014 NOSIG

TAF TAF LOWL
Valido dal 25 a 06 ore il 26 a 06 ore UTC


250515Z 2506/2606 VRB02KT 9999 FEW050 TX22/2514Z TN13/2603Z
PROB30
TEMPO 2517/2522 26015KT SHRA SCT050TCU BKN070
TEMPO 2522/2606 27007KT -SHRA SCT020 BKN050
Nessun NOTAM noto per questo aeroporto.



MetMap, La meteo Aeronautica in un colpo d'occhio ! - Copyright ORBIFLY Dicembre 2007 - Disclaimer

ORBIFLY MET'MAP TEAM :

Programmazione e sviluppo : Alexandra Zaïnal
Concezione e sviluppo : Baudouin d'Aumeries
Co-Programmazione e sviluppo : Marc-Olivier Méhu
Supporto tecnico e logistico : Manuel Goepfert
Aiuto per la traduzione : Arnaldo La Scala

Contatto : metmap@orbifly.com




FONTI E CREDITI :

   NOAA